Time;durP1;ratioP1;P1;durP2;ratioP2;P2;SDS_P1;SDS_P2;PMS_P1;PMS_P2;Temp;Humidity;BMP_temperature;BMP_pressure;BME280_temperature;BME280_humidity;BME280_pressure;Samples;Min_cycle;Max_cycle;Signal;HPM_P1;HPM_P2
2022/03/02 00:00:16;;;;;;;0.50;0.50;;;-0.60;99.90;;;;;;5033827;28;20968;-67
2022/03/02 00:03:03;;;;;;;0.47;0.47;;;-0.60;99.90;;;;;;5046692;28;20886;-68
2022/03/02 00:05:50;;;;;;;0.50;0.50;;;-0.60;99.90;;;;;;5055677;28;20988;-69
2022/03/02 00:08:38;;;;;;;3.40;3.17;;;-0.60;99.90;;;;;;5053513;28;20428;-67
2022/03/02 00:11:27;;;;;;;0.50;0.50;;;-0.50;99.90;;;;;;5055530;28;20850;-68
2022/03/02 00:14:14;;;;;;;0.47;0.47;;;-0.50;99.90;;;;;;5054459;28;20977;-67
2022/03/02 00:17:01;;;;;;;0.50;0.50;;;-0.50;99.90;;;;;;5054959;28;20471;-68
2022/03/02 00:19:48;;;;;;;0.50;0.50;;;-0.50;99.90;;;;;;5053219;28;20420;-69
2022/03/02 00:22:35;;;;;;;0.40;0.40;;;-0.50;99.90;;;;;;5054786;28;20461;-68
2022/03/02 00:25:22;;;;;;;0.50;0.50;;;-0.40;99.90;;;;;;5055332;28;20444;-67
2022/03/02 00:28:10;;;;;;;0.50;0.50;;;-0.50;99.90;;;;;;5055236;28;20425;-67
2022/03/02 00:30:57;;;;;;;0.50;0.50;;;-0.50;99.90;;;;;;5056128;28;20417;-67
2022/03/02 00:33:44;;;;;;;0.40;0.40;;;-0.50;99.90;;;;;;5054664;28;20424;-68
2022/03/02 00:36:31;;;;;;;0.50;0.50;;;-0.40;99.90;;;;;;5054875;28;20507;-67
2022/03/02 00:39:18;;;;;;;0.50;0.50;;;-0.40;99.90;;;;;;5054537;28;20432;-67
2022/03/02 00:42:06;;;;;;;0.40;0.40;;;-0.40;99.90;;;;;;5054439;28;20516;-67
2022/03/02 00:44:54;;;;;;;0.50;0.50;;;-0.30;99.90;;;;;;5054622;28;21080;-68
2022/03/02 00:47:41;;;;;;;0.50;0.50;;;-0.30;99.90;;;;;;5054813;28;20428;-68
2022/03/02 00:50:28;;;;;;;0.50;0.50;;;-0.30;99.90;;;;;;5054721;28;20780;-68
2022/03/02 00:53:16;;;;;;;0.50;0.50;;;-0.40;99.90;;;;;;5054155;28;20421;-68
2022/03/02 00:56:03;;;;;;;0.47;0.47;;;-0.40;99.90;;;;;;5054375;28;20445;-67
2022/03/02 00:58:50;;;;;;;0.40;0.40;;;-0.40;99.90;;;;;;5054556;28;20416;-67
2022/03/02 01:01:38;;;;;;;0.50;0.50;;;-0.40;99.90;;;;;;5054265;28;20461;-67
2022/03/02 01:04:25;;;;;;;0.40;0.40;;;-0.40;99.90;;;;;;5053432;28;20965;-67
2022/03/02 01:07:12;;;;;;;0.40;0.40;;;-0.40;99.90;;;;;;5053354;28;20428;-67
2022/03/02 01:09:59;;;;;;;0.50;0.50;;;-0.30;99.90;;;;;;5076366;28;20429;-68
2022/03/02 01:12:46;;;;;;;0.50;0.50;;;-0.30;99.90;;;;;;5076151;28;20413;-68
2022/03/02 01:15:34;;;;;;;0.50;0.50;;;-0.40;99.90;;;;;;5074527;28;20470;-68
2022/03/02 01:18:22;;;;;;;0.60;0.60;;;-0.40;99.90;;;;;;5074207;28;20429;-71
2022/03/02 01:21:09;;;;;;;0.40;0.40;;;-0.30;99.90;;;;;;5073433;28;20440;-68
2022/03/02 01:23:57;;;;;;;0.50;0.50;;;-0.40;99.90;;;;;;5072923;28;20428;-68
2022/03/02 01:26:46;;;;;;;0.40;0.40;;;-0.30;99.90;;;;;;5073071;28;20417;-69
2022/03/02 01:29:34;;;;;;;0.40;0.40;;;-0.30;99.90;;;;;;5072623;28;20425;-67
2022/03/02 01:32:21;;;;;;;0.40;0.40;;;-0.30;99.90;;;;;;5071799;28;20420;-68
2022/03/02 01:35:11;;;;;;;0.43;0.43;;;-0.20;99.90;;;;;;5071522;28;20470;-70
2022/03/02 01:37:58;;;;;;;0.40;0.40;;;-0.20;99.90;;;;;;5071717;28;20429;-69
2022/03/02 01:40:45;;;;;;;0.40;0.40;;;-0.10;99.90;;;;;;5057674;28;20420;-68
2022/03/02 01:43:32;;;;;;;0.50;0.50;;;-0.10;99.90;;;;;;5053607;28;20464;-68
2022/03/02 01:46:20;;;;;;;0.40;0.40;;;0.00;99.90;;;;;;5053264;28;20806;-68
2022/03/02 01:49:07;;;;;;;1.00;1.00;;;0.00;99.90;;;;;;5052932;28;20425;-68
2022/03/02 01:51:56;;;;;;;0.50;0.50;;;0.10;99.90;;;;;;5052828;28;20429;-68
2022/03/02 01:54:43;;;;;;;1.63;1.63;;;0.10;99.90;;;;;;5052319;28;20451;-68
2022/03/02 01:57:30;;;;;;;0.50;0.50;;;0.10;99.90;;;;;;5052744;28;20494;-68
2022/03/02 02:00:20;;;;;;;0.47;0.47;;;0.20;99.90;;;;;;5053113;28;20444;-68
2022/03/02 02:03:07;;;;;;;0.50;0.50;;;0.20;99.90;;;;;;5052264;28;20468;-68
2022/03/02 02:05:54;;;;;;;0.50;0.50;;;0.20;99.90;;;;;;5052776;28;20495;-68
2022/03/02 02:08:42;;;;;;;0.63;0.63;;;0.30;99.90;;;;;;5052635;28;20538;-68
2022/03/02 02:11:31;;;;;;;0.50;0.50;;;0.30;99.90;;;;;;5052379;28;20421;-68
2022/03/02 02:14:18;;;;;;;0.40;0.40;;;0.20;99.90;;;;;;5053613;28;20516;-67
2022/03/02 02:17:05;;;;;;;0.43;0.43;;;0.30;99.90;;;;;;5056229;28;20413;-67
2022/03/02 02:19:52;;;;;;;0.63;0.63;;;0.30;99.90;;;;;;5058028;28;20425;-68
2022/03/02 02:22:43;;;;;;;0.50;0.50;;;0.30;99.90;;;;;;5062023;28;20500;-67
2022/03/02 02:25:30;;;;;;;0.50;0.50;;;0.30;99.90;;;;;;5054786;28;20469;-68
2022/03/02 02:28:22;;;;;;;0.40;0.40;;;0.40;99.90;;;;;;5058921;28;20426;-67
2022/03/02 02:31:09;;;;;;;0.50;0.50;;;0.40;99.90;;;;;;5063983;28;20424;-68
2022/03/02 02:33:56;;;;;;;0.50;0.50;;;0.30;99.90;;;;;;5056881;28;20422;-67
2022/03/02 02:36:44;;;;;;;0.50;0.50;;;0.30;99.90;;;;;;5055450;28;20586;-67
2022/03/02 02:39:33;;;;;;;0.40;0.40;;;0.30;99.90;;;;;;5055595;28;20444;-67
2022/03/02 02:42:19;;;;;;;0.50;0.50;;;0.30;99.90;;;;;;5056158;28;20461;-67
2022/03/02 02:45:07;;;;;;;0.50;0.50;;;0.30;99.90;;;;;;5055800;28;20479;-67
2022/03/02 02:47:55;;;;;;;0.40;0.40;;;0.30;99.90;;;;;;5057775;28;20499;-67
2022/03/02 02:50:43;;;;;;;0.40;0.40;;;0.30;99.90;;;;;;5055758;28;20432;-67
2022/03/02 02:53:29;;;;;;;0.50;0.50;;;0.30;99.90;;;;;;5054775;28;20474;-67
2022/03/02 02:56:18;;;;;;;0.40;0.40;;;0.30;99.90;;;;;;5055338;28;20863;-67
2022/03/02 02:59:04;;;;;;;0.50;0.50;;;0.30;99.90;;;;;;5055544;28;20424;-67
2022/03/02 03:01:52;;;;;;;0.40;0.40;;;0.40;99.90;;;;;;5054844;28;21599;-68
2022/03/02 03:04:40;;;;;;;0.50;0.50;;;0.40;99.90;;;;;;5056093;28;20456;-67
2022/03/02 03:07:27;;;;;;;0.80;0.80;;;0.40;99.90;;;;;;5055615;28;20775;-67
2022/03/02 03:10:15;;;;;;;0.40;0.40;;;0.50;99.90;;;;;;5055827;28;20424;-68
2022/03/02 03:13:04;;;;;;;0.43;0.43;;;0.50;99.90;;;;;;5055771;28;20439;-67
2022/03/02 03:15:52;;;;;;;0.40;0.40;;;0.40;99.90;;;;;;5056017;28;20494;-67
2022/03/02 03:18:39;;;;;;;0.50;0.50;;;0.40;99.90;;;;;;5055992;28;20435;-67
2022/03/02 03:21:26;;;;;;;0.50;0.50;;;0.40;99.90;;;;;;5054417;28;20428;-67
2022/03/02 03:24:12;;;;;;;0.40;0.40;;;0.30;99.90;;;;;;5056175;28;20474;-68
2022/03/02 03:27:00;;;;;;;0.50;0.50;;;0.20;99.90;;;;;;5056504;28;20899;-68
2022/03/02 03:29:48;;;;;;;0.50;0.50;;;0.00;99.90;;;;;;5055155;28;20451;-67
2022/03/02 03:32:35;;;;;;;0.40;0.40;;;-0.10;99.90;;;;;;5056505;28;20510;-68
2022/03/02 03:35:24;;;;;;;0.50;0.50;;;-0.20;99.90;;;;;;5055490;28;20753;-68
2022/03/02 03:38:11;;;;;;;0.47;0.47;;;-0.30;99.90;;;;;;5055900;28;20952;-68
2022/03/02 03:40:58;;;;;;;0.50;0.50;;;-0.30;99.90;;;;;;5055529;28;20963;-68
2022/03/02 03:43:44;;;;;;;0.43;0.43;;;-0.40;99.90;;;;;;5055175;28;20468;-69
2022/03/02 03:46:33;;;;;;;0.40;0.40;;;-0.60;99.90;;;;;;5056086;28;20428;-69
2022/03/02 03:49:20;;;;;;;0.40;0.40;;;-0.70;99.90;;;;;;5055950;28;20457;-69
2022/03/02 03:52:08;;;;;;;0.40;0.40;;;-0.80;99.90;;;;;;5054876;28;20634;-69
2022/03/02 03:54:55;;;;;;;0.70;0.70;;;-0.70;99.90;;;;;;5055234;28;20534;-68
2022/03/02 03:57:43;;;;;;;3.80;1.93;;;-0.80;99.90;;;;;;5056184;28;20447;-69
2022/03/02 04:00:29;;;;;;;0.40;0.40;;;-0.80;99.90;;;;;;5054348;28;20802;-69
2022/03/02 04:03:18;;;;;;;0.40;0.40;;;-0.90;99.90;;;;;;5053440;28;20476;-69
2022/03/02 04:06:05;;;;;;;0.40;0.40;;;-0.90;99.90;;;;;;5054718;28;20452;-69
2022/03/02 04:08:52;;;;;;;0.70;0.70;;;-0.80;99.90;;;;;;5054753;28;20424;-69
2022/03/02 04:11:39;;;;;;;0.50;0.50;;;-0.90;99.90;;;;;;5054452;28;20428;-69
2022/03/02 04:14:25;;;;;;;0.40;0.40;;;-0.90;99.90;;;;;;5054349;28;20488;-68
2022/03/02 04:17:12;;;;;;;0.40;0.40;;;-0.90;99.90;;;;;;5054754;28;20425;-69
2022/03/02 04:20:01;;;;;;;0.50;0.50;;;-0.80;99.90;;;;;;5055735;28;20428;-69
2022/03/02 04:22:48;;;;;;;0.50;0.50;;;-0.90;99.90;;;;;;5054798;28;20537;-69
2022/03/02 04:25:36;;;;;;;0.70;0.70;;;-1.00;99.90;;;;;;5053787;28;20445;-69
2022/03/02 04:28:23;;;;;;;0.40;0.40;;;-1.00;99.90;;;;;;5054340;28;20428;-70
2022/03/02 04:31:10;;;;;;;0.50;0.50;;;-0.90;99.90;;;;;;5055336;28;20421;-69
2022/03/02 04:33:57;;;;;;;0.50;0.50;;;-0.90;99.90;;;;;;5053769;28;20426;-69
2022/03/02 04:36:46;;;;;;;0.50;0.50;;;-0.90;99.90;;;;;;5054569;28;20437;-68
2022/03/02 04:39:32;;;;;;;0.40;0.40;;;-0.90;99.90;;;;;;5054199;28;20428;-69
2022/03/02 04:42:19;;;;;;;0.50;0.50;;;-0.70;99.90;;;;;;5054228;28;20482;-68
2022/03/02 04:45:07;;;;;;;0.50;0.50;;;-0.70;99.90;;;;;;5054558;28;20436;-68
2022/03/02 04:47:54;;;;;;;0.50;0.50;;;-0.70;99.90;;;;;;5053894;28;20459;-69
2022/03/02 04:50:41;;;;;;;0.40;0.40;;;-0.70;99.90;;;;;;5054066;28;20502;-69
2022/03/02 04:53:29;;;;;;;0.40;0.40;;;-0.70;99.90;;;;;;5056312;28;20421;-69
2022/03/02 04:56:17;;;;;;;0.43;0.43;;;-0.60;99.90;;;;;;5054401;28;20960;-69
2022/03/02 04:59:04;;;;;;;0.40;0.40;;;-0.60;99.90;;;;;;5053752;28;20425;-69
2022/03/02 05:01:50;;;;;;;0.50;0.50;;;-0.50;99.90;;;;;;5053123;28;20436;-68
2022/03/02 05:04:37;;;;;;;0.50;0.50;;;-0.50;99.90;;;;;;5054542;28;20475;-68
2022/03/02 05:07:24;;;;;;;0.40;0.40;;;-0.50;99.90;;;;;;5053256;28;20441;-69
2022/03/02 05:10:14;;;;;;;0.40;0.40;;;-0.50;99.90;;;;;;5053392;28;20428;-69
2022/03/02 05:13:02;;;;;;;0.40;0.40;;;-0.50;99.90;;;;;;5052920;28;20539;-69
2022/03/02 05:15:49;;;;;;;0.50;0.50;;;-0.50;99.90;;;;;;5054037;28;20525;-68
2022/03/02 05:18:35;;;;;;;0.50;0.50;;;-0.50;99.90;;;;;;5054236;28;20428;-67
2022/03/02 05:21:22;;;;;;;1.43;1.33;;;-0.50;99.90;;;;;;5053855;28;20425;-69
2022/03/02 05:24:09;;;;;;;0.50;0.50;;;-0.50;99.90;;;;;;5051639;28;21344;-69
2022/03/02 05:26:58;;;;;;;0.40;0.40;;;-0.50;99.90;;;;;;5053043;28;20479;-69
2022/03/02 05:29:45;;;;;;;0.90;0.90;;;-0.40;99.90;;;;;;5054380;28;20429;-69
2022/03/02 05:32:32;;;;;;;0.43;0.43;;;-0.60;99.90;;;;;;5054384;28;20497;-69
2022/03/02 05:35:19;;;;;;;0.50;0.50;;;-0.70;99.90;;;;;;5055073;28;20442;-71
2022/03/02 05:38:05;;;;;;;0.43;0.43;;;-0.70;99.90;;;;;;5055099;28;20808;-69
2022/03/02 05:40:52;;;;;;;0.50;0.50;;;-0.70;99.90;;;;;;5054876;28;20417;-68
2022/03/02 05:43:41;;;;;;;0.50;0.50;;;-0.90;99.90;;;;;;5053999;28;20874;-67
2022/03/02 05:46:28;;;;;;;0.50;0.50;;;-0.90;99.90;;;;;;5052802;28;20426;-69
2022/03/02 05:49:16;;;;;;;0.40;0.40;;;-0.90;99.90;;;;;;5052877;28;20420;-69
2022/03/02 05:52:04;;;;;;;0.50;0.50;;;-0.90;99.90;;;;;;5052115;28;20425;-69
2022/03/02 05:54:51;;;;;;;0.50;0.50;;;-1.00;99.90;;;;;;5053192;28;20498;-68
2022/03/02 05:57:38;;;;;;;0.50;0.50;;;-1.00;99.90;;;;;;5053007;28;20510;-69
2022/03/02 06:00:26;;;;;;;0.40;0.40;;;-1.00;99.90;;;;;;5053720;28;20416;-69
2022/03/02 06:03:14;;;;;;;0.40;0.40;;;-1.00;99.90;;;;;;5052179;28;20515;-69
2022/03/02 06:06:01;;;;;;;0.40;0.40;;;-1.00;99.90;;;;;;5051890;28;20536;-69
2022/03/02 06:08:47;;;;;;;0.40;0.40;;;-1.00;99.90;;;;;;5052642;28;20495;-69
2022/03/02 06:11:36;;;;;;;0.60;0.60;;;-1.00;99.90;;;;;;5052301;28;20429;-69
2022/03/02 06:14:24;;;;;;;0.40;0.40;;;-1.00;99.90;;;;;;5052747;28;20445;-69
2022/03/02 06:17:13;;;;;;;0.50;0.50;;;-1.00;99.90;;;;;;5051662;28;20417;-69
2022/03/02 06:20:00;;;;;;;0.50;0.50;;;-1.00;99.90;;;;;;5053190;28;20478;-69
2022/03/02 06:22:48;;;;;;;0.50;0.50;;;-1.00;99.90;;;;;;5051894;28;20417;-68
2022/03/02 06:25:36;;;;;;;0.40;0.40;;;-1.00;99.90;;;;;;5052815;28;20438;-69
2022/03/02 06:28:23;;;;;;;3.80;3.50;;;-0.90;99.90;;;;;;5053699;28;20425;-69
2022/03/02 06:31:10;;;;;;;0.50;0.50;;;-0.80;99.90;;;;;;5052463;28;20478;-68
2022/03/02 06:33:58;;;;;;;1.83;1.73;;;-0.60;99.90;;;;;;5053493;28;20474;-69
2022/03/02 06:36:49;;;;;;;0.50;0.50;;;-0.70;99.90;;;;;;5053010;28;20968;-69
2022/03/02 06:39:36;;;;;;;0.50;0.50;;;-0.50;99.90;;;;;;5052641;28;20417;-68
2022/03/02 06:42:24;;;;;;;0.57;0.57;;;-0.40;99.90;;;;;;5051340;28;20424;-69
2022/03/02 06:45:17;;;;;;;0.50;0.50;;;-0.30;99.90;;;;;;5047661;28;20849;-69
2022/03/02 06:48:13;;;;;;;0.50;0.50;;;-0.20;99.90;;;;;;5037146;28;20968;-69
2022/03/02 06:51:02;;;;;;;0.50;0.50;;;-0.20;99.90;;;;;;5050575;28;20985;-69
2022/03/02 06:53:51;;;;;;;0.50;0.50;;;-0.20;99.90;;;;;;5050480;28;20902;-69
2022/03/02 06:56:48;;;;;;;0.60;0.60;;;0.00;99.90;;;;;;5062433;28;20425;-69
2022/03/02 06:59:39;;;;;;;0.50;0.50;;;-0.10;99.90;;;;;;5063228;28;20455;-68
2022/03/02 07:02:36;;;;;;;0.50;0.50;;;0.00;99.90;;;;;;5065561;28;20429;-69
2022/03/02 07:05:23;;;;;;;0.50;0.50;;;0.00;99.90;;;;;;5068648;28;20472;-68
2022/03/02 07:08:11;;;;;;;0.50;0.50;;;0.10;99.90;;;;;;5068387;28;20429;-68
2022/03/02 07:11:00;;;;;;;0.50;0.50;;;0.20;99.90;;;;;;5069448;28;20433;-69
2022/03/02 07:13:48;;;;;;;0.40;0.40;;;0.30;99.90;;;;;;5068336;28;20503;-68
2022/03/02 07:16:36;;;;;;;0.40;0.40;;;0.40;99.90;;;;;;5068828;28;20440;-68
2022/03/02 07:19:23;;;;;;;0.40;0.40;;;0.50;99.90;;;;;;5070855;28;20658;-69
2022/03/02 07:22:13;;;;;;;2.33;1.27;;;0.40;99.90;;;;;;5072178;28;20455;-67
2022/03/02 07:25:05;;;;;;;1.00;0.80;;;0.50;99.90;;;;;;5070742;28;20468;-69
2022/03/02 07:27:55;;;;;;;0.50;0.50;;;0.50;99.90;;;;;;5065567;28;20463;-70
2022/03/02 07:30:44;;;;;;;0.50;0.50;;;0.60;99.90;;;;;;5055613;28;20887;-69
2022/03/02 07:33:36;;;;;;;0.50;0.50;;;0.60;99.90;;;;;;5053440;28;20424;-69
2022/03/02 07:36:24;;;;;;;0.50;0.50;;;0.60;99.90;;;;;;5055342;28;21023;-69
2022/03/02 07:39:12;;;;;;;0.47;0.47;;;0.60;99.90;;;;;;5055301;28;20949;-69
2022/03/02 07:42:00;;;;;;;0.50;0.50;;;0.70;99.90;;;;;;5054738;28;20519;-69
2022/03/02 07:44:47;;;;;;;0.50;0.50;;;0.70;99.90;;;;;;5055640;28;20460;-69
2022/03/02 07:47:35;;;;;;;0.40;0.40;;;0.80;99.90;;;;;;5054861;28;20793;-69
2022/03/02 07:50:22;;;;;;;1.17;1.17;;;0.80;99.90;;;;;;5047800;28;20437;-68
2022/03/02 07:53:15;;;;;;;1.30;1.30;;;0.90;99.90;;;;;;5027414;28;20453;-68
2022/03/02 07:56:04;;;;;;;0.50;0.50;;;0.60;99.90;;;;;;5050102;28;20453;-69
2022/03/02 07:58:52;;;;;;;0.50;0.50;;;1.20;99.90;;;;;;5048826;28;20956;-69
2022/03/02 08:01:39;;;;;;;0.50;0.50;;;1.30;99.90;;;;;;5055280;28;20479;-69
2022/03/02 08:04:28;;;;;;;2.40;2.30;;;1.40;99.90;;;;;;5055531;28;20472;-69
2022/03/02 08:07:15;;;;;;;0.50;0.50;;;1.50;99.90;;;;;;5039558;28;20445;-69
2022/03/02 08:10:03;;;;;;;0.40;0.40;;;1.60;99.90;;;;;;5041251;28;20944;-68
2022/03/02 08:12:50;;;;;;;0.57;0.57;;;1.70;99.90;;;;;;5051605;28;20494;-69
2022/03/02 08:15:39;;;;;;;0.50;0.50;;;1.70;99.90;;;;;;5042174;28;20487;-69
2022/03/02 08:18:27;;;;;;;0.50;0.50;;;1.80;99.90;;;;;;5055188;28;20495;-69
2022/03/02 08:21:19;;;;;;;0.50;0.50;;;2.00;99.90;;;;;;5053642;28;20830;-69
2022/03/02 08:24:08;;;;;;;0.50;0.50;;;2.10;99.90;;;;;;5050512;28;20517;-68
2022/03/02 08:26:58;;;;;;;1.00;1.00;;;2.10;99.90;;;;;;5041634;28;20458;-67
2022/03/02 08:29:51;;;;;;;0.40;0.40;;;2.30;99.90;;;;;;5044856;28;20445;-69
2022/03/02 08:32:42;;;;;;;0.50;0.50;;;2.50;99.90;;;;;;5046869;28;20957;-71
2022/03/02 08:35:34;;;;;;;0.50;0.50;;;2.80;99.90;;;;;;5032886;28;20468;-69
2022/03/02 08:38:22;;;;;;;0.40;0.40;;;3.10;99.90;;;;;;5033314;28;20433;-69
2022/03/02 08:41:10;;;;;;;0.50;0.50;;;3.20;99.90;;;;;;5040850;28;20864;-70
2022/03/02 08:43:57;;;;;;;0.50;0.50;;;3.70;99.90;;;;;;5064571;28;20563;-70
2022/03/02 08:46:46;;;;;;;0.50;0.50;;;3.70;99.90;;;;;;5066694;28;20491;-70
2022/03/02 08:49:34;;;;;;;1.13;1.13;;;3.90;99.90;;;;;;5065069;28;20503;-69
2022/03/02 08:52:26;;;;;;;0.50;0.50;;;4.20;99.90;;;;;;5056308;28;20420;-70
2022/03/02 08:55:13;;;;;;;0.50;0.50;;;4.40;99.90;;;;;;5040258;28;20458;-69
2022/03/02 08:58:02;;;;;;;0.73;0.73;;;4.60;99.90;;;;;;5050698;28;20470;-69
2022/03/02 09:00:52;;;;;;;0.50;0.50;;;4.70;99.90;;;;;;5036542;28;20437;-69
2022/03/02 09:03:45;;;;;;;0.57;0.57;;;4.80;99.90;;;;;;5046944;28;20436;-69
2022/03/02 09:06:36;;;;;;;2.00;1.90;;;5.00;99.90;;;;;;5041838;28;20820;-69
2022/03/02 09:09:23;;;;;;;0.50;0.50;;;5.20;99.90;;;;;;5051679;28;20433;-70
2022/03/02 09:12:11;;;;;;;0.60;0.60;;;5.30;99.90;;;;;;5051105;28;20464;-69
2022/03/02 09:14:58;;;;;;;1.00;1.00;;;5.50;99.90;;;;;;5050334;28;20468;-70
2022/03/02 09:17:45;;;;;;;1.33;1.23;;;5.60;99.90;;;;;;5052103;28;20448;-69
2022/03/02 09:20:33;;;;;;;0.60;0.60;;;5.70;99.90;;;;;;5050530;28;20654;-71
2022/03/02 09:23:24;;;;;;;0.50;0.50;;;5.70;99.90;;;;;;5052013;28;20435;-70
2022/03/02 09:26:13;;;;;;;0.40;0.40;;;5.80;99.90;;;;;;5050732;28;20460;-69
2022/03/02 09:29:05;;;;;;;0.50;0.50;;;5.90;99.90;;;;;;5052914;28;20421;-69
2022/03/02 09:31:52;;;;;;;0.40;0.40;;;6.00;99.90;;;;;;5052706;28;20436;-70
2022/03/02 09:34:45;;;;;;;0.80;0.80;;;6.00;99.90;;;;;;5032483;28;20440;-68
2022/03/02 09:37:35;;;;;;;7.73;2.10;;;6.00;99.90;;;;;;5048760;28;20457;-68
2022/03/02 09:40:25;;;;;;;0.40;0.40;;;6.00;99.90;;;;;;5035970;28;20436;-68
2022/03/02 09:43:19;;;;;;;0.50;0.50;;;6.00;99.90;;;;;;5050657;28;20429;-68
2022/03/02 09:46:09;;;;;;;0.50;0.50;;;6.00;99.90;;;;;;5052173;28;20482;-68
2022/03/02 09:49:02;;;;;;;0.80;0.80;;;6.00;99.90;;;;;;5035099;28;20430;-69
2022/03/02 09:51:53;;;;;;;0.90;0.80;;;6.00;99.90;;;;;;5051588;28;20435;-68
2022/03/02 09:54:40;;;;;;;5.13;2.60;;;6.10;99.90;;;;;;5050908;28;21127;-70
2022/03/02 09:57:28;;;;;;;0.40;0.40;;;6.20;99.90;;;;;;5041204;28;20468;-69
2022/03/02 10:00:18;;;;;;;8.23;2.10;;;6.10;99.90;;;;;;5048797;28;20518;-69
2022/03/02 10:03:10;;;;;;;1.67;1.57;;;6.10;99.90;;;;;;5044474;28;20514;-69
2022/03/02 10:06:03;;;;;;;0.50;0.50;;;6.10;99.90;;;;;;5031553;28;20465;-69
2022/03/02 10:08:51;;;;;;;0.50;0.50;;;6.10;99.90;;;;;;5048742;28;20452;-69
2022/03/02 10:11:41;;;;;;;0.50;0.50;;;6.20;99.90;;;;;;5044512;28;20466;-68
2022/03/02 10:14:30;;;;;;;0.40;0.40;;;6.20;99.90;;;;;;5051593;28;20502;-69
2022/03/02 10:17:20;;;;;;;0.40;0.40;;;6.50;99.90;;;;;;5051290;28;20489;-69
2022/03/02 10:20:09;;;;;;;0.40;0.40;;;6.50;99.90;;;;;;5051849;28;20425;-69
2022/03/02 10:23:18;;;;;;;0.50;0.50;;;6.60;99.90;;;;;;5050687;28;20421;-68
2022/03/02 10:26:21;;;;;;;0.40;0.40;;;6.80;99.90;;;;;;5045272;28;20467;-69
2022/03/02 10:29:22;;;;;;;0.40;0.40;;;6.90;99.90;;;;;;5049665;28;20855;-69
2022/03/02 10:32:16;;;;;;;0.47;0.47;;;7.10;99.90;;;;;;5050303;28;20490;-68
2022/03/02 10:35:07;;;;;;;0.50;0.50;;;7.20;99.90;;;;;;5051778;28;20448;-69
2022/03/02 10:38:03;;;;;;;0.50;0.50;;;7.30;99.90;;;;;;5051463;28;20437;-68
2022/03/02 10:40:54;;;;;;;0.40;0.40;;;7.40;99.90;;;;;;5050035;28;20433;-68
2022/03/02 10:43:48;;;;;;;0.40;0.40;;;7.40;99.90;;;;;;5049996;28;20432;-69
2022/03/02 10:46:39;;;;;;;3.13;2.93;;;7.40;99.90;;;;;;5048062;28;20416;-69
2022/03/02 10:49:29;;;;;;;0.50;0.50;;;7.30;99.90;;;;;;5048169;28;20436;-68
2022/03/02 10:52:22;;;;;;;0.60;0.60;;;7.40;99.90;;;;;;5052408;28;20416;-69
2022/03/02 10:55:13;;;;;;;0.90;0.90;;;7.20;99.90;;;;;;5053179;28;20460;-68
2022/03/02 10:58:03;;;;;;;3.33;3.13;;;7.20;99.90;;;;;;5054787;28;20806;-69
2022/03/02 11:00:50;;;;;;;0.40;0.40;;;7.10;99.90;;;;;;5053176;28;20972;-67
2022/03/02 11:03:38;;;;;;;0.40;0.40;;;7.00;99.90;;;;;;5052770;28;20436;-69
2022/03/02 11:06:29;;;;;;;1.33;1.23;;;6.90;99.90;;;;;;5054817;28;20464;-67
2022/03/02 11:09:17;;;;;;;0.50;0.50;;;6.80;99.90;;;;;;5054137;28;20444;-71
2022/03/02 11:12:06;;;;;;;0.40;0.40;;;6.60;99.90;;;;;;5056754;28;20846;-68
2022/03/02 11:14:55;;;;;;;0.40;0.40;;;6.60;99.90;;;;;;5067699;28;20448;-69
2022/03/02 11:17:53;;;;;;;0.43;0.43;;;6.40;99.90;;;;;;5049167;28;20417;-69
2022/03/02 11:20:40;;;;;;;0.50;0.50;;;6.40;99.90;;;;;;5054754;28;20490;-68
2022/03/02 11:23:33;;;;;;;0.50;0.50;;;6.30;99.90;;;;;;5052956;28;20435;-70
2022/03/02 11:26:23;;;;;;;1.53;1.33;;;6.20;99.90;;;;;;5054008;28;20464;-67
2022/03/02 11:29:12;;;;;;;0.50;0.50;;;6.10;99.90;;;;;;5051809;28;20486;-68
2022/03/02 11:31:59;;;;;;;0.40;0.40;;;6.00;99.90;;;;;;5055567;28;20452;-69
2022/03/02 11:34:46;;;;;;;0.40;0.40;;;6.10;99.90;;;;;;5055013;28;20506;-69
2022/03/02 11:37:34;;;;;;;0.40;0.40;;;6.20;99.90;;;;;;5053323;28;20448;-67
2022/03/02 11:40:40;;;;;;;0.40;0.40;;;6.30;99.90;;;;;;5052143;28;20486;-69
2022/03/02 11:43:29;;;;;;;2.43;2.00;;;6.50;99.90;;;;;;5054211;28;20432;-68
2022/03/02 11:46:17;;;;;;;2.53;2.43;;;6.40;99.90;;;;;;5053549;28;20479;-67
2022/03/02 11:49:05;;;;;;;0.50;0.50;;;6.40;99.90;;;;;;5054237;28;20460;-67
2022/03/02 11:52:05;;;;;;;0.50;0.50;;;6.40;99.90;;;;;;5053500;28;20433;-68
2022/03/02 11:54:55;;;;;;;0.50;0.50;;;6.60;99.90;;;;;;5042134;28;20821;-67
2022/03/02 11:57:47;;;;;;;0.40;0.40;;;6.70;99.90;;;;;;5055454;28;20436;-70
2022/03/02 12:00:34;;;;;;;0.40;0.40;;;6.70;99.90;;;;;;5053839;28;20511;-69
2022/03/02 12:03:21;;;;;;;0.40;0.40;;;6.80;99.90;;;;;;5052580;28;20914;-69
2022/03/02 12:06:10;;;;;;;0.50;0.50;;;6.70;99.90;;;;;;5054213;28;20486;-68
2022/03/02 12:08:58;;;;;;;0.50;0.50;;;6.70;99.90;;;;;;5053541;28;20433;-68
2022/03/02 12:11:45;;;;;;;0.50;0.50;;;6.50;99.90;;;;;;5042417;28;20437;-68
2022/03/02 12:14:42;;;;;;;2.87;2.77;;;6.50;99.90;;;;;;5052659;28;20475;-69
2022/03/02 12:17:33;;;;;;;0.40;0.40;;;6.50;99.90;;;;;;5052794;28;20424;-67
2022/03/02 12:20:22;;;;;;;0.40;0.40;;;6.40;99.90;;;;;;5050223;28;21889;-67
2022/03/02 12:23:09;;;;;;;0.40;0.40;;;6.30;99.90;;;;;;5053155;28;20464;-70
2022/03/02 12:25:59;;;;;;;4.03;3.70;;;6.30;99.90;;;;;;5049051;28;20891;-68
2022/03/02 12:29:00;;;;;;;0.40;0.40;;;6.30;99.90;;;;;;5058013;28;20812;-66
2022/03/02 12:32:30;;;;;;;0.80;0.80;;;6.20;99.90;;;;;;5056028;28;20532;-67
2022/03/02 12:35:23;;;;;;;0.60;0.60;;;6.20;99.90;;;;;;5025246;28;20969;-67
2022/03/02 12:38:29;;;;;;;0.40;0.40;;;6.20;99.90;;;;;;5048411;28;20436;-67
2022/03/02 12:41:16;;;;;;;0.50;0.50;;;6.30;99.90;;;;;;5058061;28;20456;-68
2022/03/02 12:44:05;;;;;;;0.40;0.40;;;6.40;99.90;;;;;;5051424;28;20448;-69
2022/03/02 12:46:54;;;;;;;0.40;0.40;;;6.50;99.90;;;;;;5049902;28;20562;-69
2022/03/02 12:49:47;;;;;;;0.43;0.43;;;6.50;99.50;;;;;;5057752;28;20813;-68
2022/03/02 12:52:42;;;;;;;1.33;1.33;;;6.60;99.90;;;;;;5059565;28;20420;-68
2022/03/02 12:55:35;;;;;;;1.47;1.40;;;6.70;99.60;;;;;;5059337;28;20599;-67
2022/03/02 12:58:43;;;;;;;0.90;0.90;;;6.70;99.60;;;;;;5061415;28;20432;-69
2022/03/02 13:01:30;;;;;;;0.50;0.50;;;6.70;99.00;;;;;;5058968;28;20412;-67
2022/03/02 13:04:33;;;;;;;0.40;0.40;;;6.70;99.90;;;;;;5052921;28;20444;-68
2022/03/02 13:07:42;;;;;;;0.60;0.60;;;6.80;99.10;;;;;;5058968;28;20428;-68
2022/03/02 13:11:01;;;;;;;0.40;0.40;;;6.80;97.60;;;;;;5062147;28;20448;-68
2022/03/02 13:13:48;;;;;;;0.40;0.40;;;6.90;98.50;;;;;;5054930;28;20471;-69
2022/03/02 13:16:39;;;;;;;0.60;0.60;;;7.10;98.60;;;;;;5053311;28;20998;-68
2022/03/02 13:19:27;;;;;;;1.17;1.17;;;7.30;96.30;;;;;;5055299;28;20514;-68
2022/03/02 13:22:34;;;;;;;0.40;0.40;;;7.60;96.30;;;;;;5055662;28;20428;-67
2022/03/02 13:25:22;;;;;;;0.60;0.60;;;7.90;95.70;;;;;;5052762;28;20992;-68
2022/03/02 13:28:13;;;;;;;0.50;0.50;;;8.00;94.80;;;;;;5052932;28;21016;-68
2022/03/02 13:31:08;;;;;;;0.50;0.50;;;8.50;93.90;;;;;;5052589;28;20428;-68
2022/03/02 13:34:09;;;;;;;0.40;0.40;;;9.00;93.20;;;;;;5056819;28;20425;-68
2022/03/02 13:36:59;;;;;;;0.90;0.90;;;9.30;91.60;;;;;;5056478;28;20517;-68
2022/03/02 13:39:47;;;;;;;0.50;0.50;;;9.70;90.70;;;;;;5053309;28;20444;-68
2022/03/02 13:42:35;;;;;;;2.27;2.17;;;10.40;90.80;;;;;;5053792;28;20482;-68
2022/03/02 13:45:22;;;;;;;0.63;0.63;;;10.90;85.10;;;;;;5051077;28;21012;-68
2022/03/02 13:48:17;;;;;;;0.70;0.70;;;11.10;81.50;;;;;;5048308;28;20417;-67
2022/03/02 13:51:06;;;;;;;5.60;2.40;;;11.50;77.90;;;;;;5049728;28;20421;-68
2022/03/02 13:54:00;;;;;;;0.50;0.50;;;11.90;77.50;;;;;;5051315;28;20456;-68
2022/03/02 13:56:49;;;;;;;0.47;0.47;;;12.70;76.10;;;;;;5048103;28;20452;-68
2022/03/02 13:59:37;;;;;;;0.40;0.40;;;14.00;73.40;;;;;;5051268;28;20523;-68
2022/03/02 14:02:24;;;;;;;0.50;0.50;;;15.00;67.90;;;;;;5048556;28;21304;-68
2022/03/02 14:05:12;;;;;;;0.40;0.40;;;15.80;63.70;;;;;;5050616;28;20509;-69
2022/03/02 14:08:05;;;;;;;0.40;0.40;;;15.70;58.20;;;;;;5050130;28;20198;-69
2022/03/02 14:10:52;;;;;;;0.40;0.40;;;15.60;57.90;;;;;;5045234;28;20265;-70
2022/03/02 14:13:39;;;;;;;1.02;1.02;;;16.20;56.20;;;;;;5051939;28;20580;-69
2022/03/02 14:16:28;;;;;;;0.90;0.60;;;16.20;52.00;;;;;;5050196;28;20202;-71
2022/03/02 14:19:15;;;;;;;1.77;1.67;;;16.10;50.70;;;;;;5041828;28;20674;-69
2022/03/02 14:22:03;;;;;;;0.40;0.40;;;16.10;51.20;;;;;;5050873;28;20209;-70
2022/03/02 14:24:52;;;;;;;0.50;0.50;;;16.20;50.90;;;;;;5050486;28;20224;-70
2022/03/02 14:27:39;;;;;;;0.50;0.50;;;16.70;50.00;;;;;;5049891;28;20238;-69
2022/03/02 14:30:31;;;;;;;2.15;2.05;;;17.10;49.80;;;;;;5049948;28;20202;-70
2022/03/02 14:33:21;;;;;;;1.35;1.35;;;17.50;49.20;;;;;;5049675;28;20288;-70
2022/03/02 14:36:17;;;;;;;0.40;0.40;;;18.30;48.90;;;;;;5050788;28;20222;-70
2022/03/02 14:39:09;;;;;;;0.40;0.40;;;18.80;47.30;;;;;;5050192;28;20683;-69
2022/03/02 14:42:13;;;;;;;0.40;0.40;;;19.00;46.00;;;;;;5049799;28;20198;-71
2022/03/02 14:45:25;;;;;;;6.20;1.67;;;19.10;45.60;;;;;;5049802;28;20271;-69
2022/03/02 14:48:14;;;;;;;1.13;1.02;;;19.40;44.60;;;;;;5050537;28;20275;-70